x

South Georgian Bay (45143) Wave Buoy

5:00pm - Fri 21st Nov 2014 All times are CST. -6 hours from GMT.

  • Sig Wave height 3.0ft
  • Peak Period 4s
  • Wind
    20mph, 27mph gusts
  • Sea Temp 44°f
  • Air Temp 29°f
  • Sea Pressure 1027.4mb
  • South Georgian Bay
  • South Georgian Bay

More Historic Weather Station data

Upgrade to MSW Pro to gain access to the past 30 days of data for over 8000 Wavebouys and Weather Stations around the globe.

Join Pro

Comparision Forecast

View Surf forecast
   
Fri 11/21 5:00pm 3ft 4s 20 27 mph 1027.4mb 44f 29f
4:00pm 3.5ft 4s 18 25 mph 1027.5mb 44f 29f
3:00pm 3.5ft 4s 20 29 mph 1027.3mb 44f 29f
2:00pm 3ft 4s 20 25 mph 1027.2mb 44f 29f
1:00pm 2.5ft 3s 18 22 mph 1026.9mb 44f 28f
12:00pm 2.5ft 4s 16 20 mph 1027.2mb 44f 28f
11:00am 2ft 3s 16 20 mph 1027.3mb 44f 26f
10:00am 2.5ft 4s 16 18 mph 1027.6mb 44f 25f
9:00am 2.5ft 4s 16 20 mph 1027.3mb 44f 26f
8:00am 2.5ft 4s 13 18 mph 1026.5mb 44f 26f
7:00am 2.5ft 5s 11 18 mph 1025.6mb 44f 26f
6:00am 3ft 5s 9 13 mph 1024.7mb 44f 25f
5:00am 3.5ft 5s 13 18 mph 1023.9mb 44f 24f
4:00am 4ft 5s 16 20 mph 1022.8mb 44f 24f
3:00am 4.5ft 6s 18 22 mph 1021.5mb 44f 24f
2:00am 5ft 5s 20 25 mph 1020.3mb 44f 24f
1:00am  -   -  20
mph
1019mb - 24f
12:00am 5.5ft 5s 20 25 mph 1017.6mb 44f 24f
Thu 11/20 11:00pm 5ft 5s 20 25 mph 1016.4mb 45f 24f
10:00pm 4.5ft 5s 25 31 mph 1015.3mb 45f 25f
9:00pm 4.5ft 5s 25 31 mph 1013.7mb 45f 27f
8:00pm 6ft 5s 22 29 mph 1012mb 45f 27f
7:00pm 6.5ft 6s 29 38 mph 1010.8mb 44f 29f
6:00pm 5ft 4s 29 38 mph 1010.4mb 45f 30f
5:00pm 6ft 5s 25 34 mph 1010.1mb 45f 28f
4:00pm 5ft 5s 27 34 mph 1009.4mb 45f 28f
3:00pm 7ft 6s 25 34 mph 1008.6mb 45f 28f
2:00pm 7ft 6s 29 36 mph 1007.4mb 45f 29f
1:00pm 7ft 6s 29 36 mph 1006.5mb 45f 29f
12:00pm 7ft 6s 29 38 mph 1006.2mb 45f 29f
11:00am 7.5ft 7s 27 36 mph 1005.5mb 45f 29f
10:00am 7ft 6s 29
mph
1005.4mb 45f 29f
9:00am 7.5ft 7s 31 40 mph 1006mb 45f 30f
8:00am 8.5ft 7s 34 45 mph 1004.8mb 45f 28f
7:00am 9ft 6s 36
mph
1003.8mb 45f 29f
5:00am 8ft 5s 36 45 mph 1002.2mb 45f 30f
4:00am 8.5ft 5s 38 45 mph 1003.4mb 45f 30f
3:00am 7ft 5s 36 43 mph 1002.9mb 45f 30f
2:00am 6.5ft 5s 34 43 mph 1001.7mb 45f 29f
1:00am 7ft 5s 34 43 mph 1001.7mb 45f 29f
12:00am 6.5ft 5s 34 40 mph 1001.4mb 45f 29f
Wed 11/19 11:00pm 5.5ft 5s 31 40 mph 1002.6mb 45f 30f
9:00pm 4.5ft 5s 29
mph
1001.9mb 45f 31f
8:00pm 4.5ft 5s 27 31 mph 1001.3mb 45f 31f
7:00pm 4.5ft 5s 25 31 mph 1002.3mb 45f 31f
6:00pm 4.5ft 5s 25 34 mph 1003.6mb 45f 29f
5:00pm 4.5ft 5s 27 36 mph 1004.8mb 45f 29f
4:00pm 4.5ft 4s 25 34 mph 1006.2mb 45f 29f
3:00pm 4.5ft 5s 25 31 mph 1007.4mb 45f 28f
2:00pm 4.5ft 5s 25 29 mph 1007.8mb 45f 27f
1:00pm 4.5ft 4s 20 27 mph 1008.7mb 45f 27f
12:00pm 4.5ft 4s 22 29 mph 1010.7mb 45f 26f
11:00am 5.5ft 5s 22 29 mph 1012.2mb 46f 25f
10:00am 5.5ft 5s 27 34 mph 1012.6mb 45f 26f
9:00am 5ft 5s 27 34 mph 1013mb 45f 25f
8:00am 5ft 5s 29 36 mph 1014.2mb 45f 25f
7:00am 5ft 4s 29 34 mph 1013.5mb 45f 24f
6:00am 5.5ft 5s 29 36 mph 1014.4mb 45f 24f
5:00am 5ft 5s 27 34 mph 1012.9mb 45f 24f
4:00am 5ft 5s 22 29 mph 1013mb 45f 26f
3:00am  -   -  22
mph
- - 27f
2:00am 6ft 6s 27 34 mph 1013.8mb 45f 27f
1:00am 7ft 6s 31 40 mph 1012.7mb 45f 27f
12:00am 8ft 6s 31 36 mph 1012.2mb 45f 28f
Tue 11/18 10:00pm 9ft 7s 31 40 mph 1010.7mb 45f 28f
9:00pm 9ft 7s 27 34 mph 1010.2mb 45f 27f
8:00pm 10ft 7s 27 36 mph 1009.3mb 45f 28f
7:00pm 10ft 7s 31 38 mph 1007.7mb 46f 31f
6:00pm 10ft 7s 34 43 mph 1006.3mb 46f 31f
5:00pm 10.5ft 7s 34 43 mph 1005.1mb 46f 32f
4:00pm 11.5ft 7s 31 40 mph 1003.9mb 46f 31f
3:00pm 11ft 7s 38 45 mph 1002.4mb 46f 31f
2:00pm 9.5ft 6s 34 40 mph 1001.1mb 46f 32f
1:00pm 9ft 6s 38 49 mph 999.9mb 46f 28f
12:00pm 9ft 6s 38 47 mph 1000.1mb 46f 31f
11:00am 9ft 6s 34 43 mph 999.4mb 46f 30f
10:00am 9.5ft 6s 36 45 mph 999.5mb 46f 29f
9:00am 9ft 6s 36 45 mph 999.2mb 46f 30f
8:00am 8.5ft 5s 38 49 mph 998.6mb 46f 28f
7:00am 7ft 5s 36 47 mph 998.2mb 46f 28f
6:00am 6.5ft 5s 31 40 mph 998mb 46f 28f
5:00am 7ft 5s 31 38 mph 998.2mb 46f 28f
4:00am 7ft 5s 34 43 mph 998.3mb 46f 27f
3:00am 6ft 5s 36 45 mph 998.1mb 46f 26f
2:00am 5.5ft 5s 31 38 mph 998.5mb 46f 26f
1:00am 6ft 5s 31 38 mph 999mb 46f 25f